createdAt,value
2023-01-13T00:01:21.199Z,89.55
2023-01-13T00:03:49.277Z,89.54
2023-01-13T00:06:19.389Z,89.58
2023-01-13T00:08:50.859Z,89.51
2023-01-13T00:11:19.738Z,89.33
2023-01-13T00:13:47.611Z,89.19
2023-01-13T00:16:17.244Z,89.26
2023-01-13T00:18:45.767Z,89.46
2023-01-13T00:21:15.197Z,89.95
2023-01-13T00:23:43.883Z,89.78
2023-01-13T00:26:13.798Z,89.96
2023-01-13T00:28:41.774Z,90.08
2023-01-13T00:31:14.345Z,90.05
2023-01-13T00:33:42.822Z,90.07
2023-01-13T00:36:14.326Z,90.01
2023-01-13T00:38:43.177Z,90.20
2023-01-13T00:41:12.982Z,90.40
2023-01-13T00:43:41.463Z,90.51
2023-01-13T00:46:10.980Z,90.25
2023-01-13T00:48:39.255Z,90.25
2023-01-13T00:51:08.765Z,90.35
2023-01-13T00:53:37.947Z,90.35
2023-01-13T00:56:06.006Z,89.89
2023-01-13T00:58:34.702Z,89.81
2023-01-13T01:01:07.093Z,89.52
2023-01-13T01:03:35.657Z,89.17
2023-01-13T01:06:05.579Z,89.25
2023-01-13T01:08:34.465Z,89.27
2023-01-13T01:11:06.634Z,89.54
2023-01-13T01:13:35.329Z,89.82
2023-01-13T01:16:04.544Z,90.35
2023-01-13T01:18:34.235Z,90.27
2023-01-13T01:21:02.254Z,90.27
2023-01-13T01:23:30.888Z,90.42
2023-01-13T01:26:06.538Z,90.72
2023-01-13T01:28:35.026Z,91.03
2023-01-13T01:31:06.652Z,91.13
2023-01-13T01:33:34.640Z,90.94
2023-01-13T01:36:03.641Z,90.98
2023-01-13T01:38:31.606Z,91.11
2023-01-13T01:40:59.983Z,91.23
2023-01-13T01:44:03.124Z,91.04
2023-01-13T01:46:31.056Z,90.82
2023-01-13T01:49:02.164Z,90.65
2023-01-13T01:51:32.628Z,90.53
2023-01-13T01:54:02.737Z,90.43
2023-01-13T01:56:31.217Z,90.54
2023-01-13T01:58:59.103Z,90.59
2023-01-13T02:01:27.346Z,90.56
2023-01-13T02:04:01.684Z,90.26
2023-01-13T02:06:30.260Z,90.23
2023-01-13T02:08:59.467Z,90.01
2023-01-13T02:11:49.977Z,90.07
2023-01-13T02:14:18.752Z,89.69
2023-01-13T02:16:51.742Z,89.58
2023-01-13T02:19:19.815Z,89.56
2023-01-13T02:21:56.991Z,89.65
2023-01-13T02:24:52.685Z,89.50
2023-01-13T02:27:39.216Z,89.40
2023-01-13T02:30:25.676Z,89.21
2023-01-13T02:33:12.427Z,89.09
2023-01-13T02:35:49.107Z,88.60
2023-01-13T02:38:20.559Z,88.52
2023-01-13T02:41:21.091Z,88.86
2023-01-13T02:44:09.339Z,89.35
2023-01-13T02:46:37.162Z,89.25
2023-01-13T02:49:07.629Z,89.02
2023-01-13T02:51:37.028Z,88.89
2023-01-13T02:54:10.943Z,88.63
2023-01-13T02:56:42.081Z,88.44
2023-01-13T02:59:10.665Z,88.29
2023-01-13T03:01:38.686Z,88.16
2023-01-13T03:04:13.787Z,87.52
2023-01-13T03:07:02.327Z,87.33
2023-01-13T03:09:38.287Z,87.29
2023-01-13T03:12:06.103Z,87.37
2023-01-13T03:14:41.803Z,87.51
2023-01-13T03:17:41.799Z,87.71
2023-01-13T03:20:24.435Z,88.18
2023-01-13T03:23:06.435Z,88.55
2023-01-13T03:25:41.254Z,89.11
2023-01-13T03:28:13.018Z,89.43
2023-01-13T03:30:46.373Z,89.64
2023-01-13T03:33:45.516Z,89.77
2023-01-13T03:36:15.225Z,90.07
2023-01-13T03:38:45.546Z,90.24
2023-01-13T03:41:20.018Z,90.52
2023-01-13T03:44:10.986Z,90.87
2023-01-13T03:46:43.359Z,90.71
2023-01-13T03:49:14.086Z,90.68
2023-01-13T03:51:42.979Z,90.88
2023-01-13T03:54:12.595Z,90.96
2023-01-13T03:56:47.850Z,90.90
2023-01-13T03:59:19.996Z,91.12
2023-01-13T04:01:57.165Z,90.81
2023-01-13T04:04:34.022Z,90.39
2023-01-13T04:07:20.763Z,90.70
2023-01-13T04:09:51.130Z,91.12
2023-01-13T04:12:25.315Z,91.09
2023-01-13T04:14:54.213Z,90.61
2023-01-13T04:17:22.383Z,90.19
2023-01-13T04:19:50.240Z,90.07
2023-01-13T04:22:18.214Z,90.36
2023-01-13T04:24:46.077Z,90.43
2023-01-13T04:27:14.152Z,90.10
2023-01-13T04:29:42.021Z,90.03
2023-01-13T04:32:09.984Z,90.05
2023-01-13T04:34:37.765Z,90.22
2023-01-13T04:37:05.723Z,90.23
2023-01-13T04:39:33.686Z,89.73
2023-01-13T04:42:02.787Z,89.47
2023-01-13T04:44:35.436Z,89.49
2023-01-13T04:47:03.953Z,89.49
2023-01-13T04:49:32.023Z,89.62
2023-01-13T04:51:59.955Z,89.20
2023-01-13T04:54:27.761Z,89.28
2023-01-13T04:56:55.727Z,89.39
2023-01-13T04:59:23.694Z,89.53
2023-01-13T05:01:51.787Z,89.57
2023-01-13T05:04:19.950Z,89.86
2023-01-13T05:06:47.907Z,90.11
2023-01-13T05:09:15.863Z,90.00
2023-01-13T05:12:02.590Z,90.26
2023-01-13T05:14:48.985Z,90.10
2023-01-13T05:17:20.152Z,90.07
2023-01-13T05:19:48.113Z,90.15
2023-01-13T05:22:34.716Z,90.00
2023-01-13T05:25:31.876Z,90.07
2023-01-13T05:28:00.239Z,90.23
2023-01-13T05:30:33.436Z,90.10
2023-01-13T05:33:01.818Z,90.24
2023-01-13T05:35:30.090Z,90.20
2023-01-13T05:37:58.210Z,90.11
2023-01-13T05:40:44.968Z,89.87
2023-01-13T05:43:20.442Z,89.82
2023-01-13T05:45:48.244Z,89.44
2023-01-13T05:48:17.004Z,88.97
2023-01-13T05:50:45.556Z,88.59
2023-01-13T05:53:13.733Z,88.40
2023-01-13T05:55:42.428Z,88.27
2023-01-13T05:58:10.998Z,88.08
2023-01-13T06:00:41.025Z,87.72
2023-01-13T06:03:10.342Z,87.53
2023-01-13T06:05:38.485Z,87.96
2023-01-13T06:08:07.336Z,88.26
2023-01-13T06:10:35.653Z,89.16
2023-01-13T06:13:04.142Z,88.44
2023-01-13T06:15:32.520Z,88.00
2023-01-13T06:18:02.239Z,87.98
2023-01-13T06:20:30.308Z,88.45
2023-01-13T06:22:58.374Z,88.77
2023-01-13T06:25:30.743Z,89.05
2023-01-13T06:27:59.632Z,89.22
2023-01-13T06:30:32.829Z,89.35
2023-01-13T06:33:03.439Z,89.45
2023-01-13T06:35:33.172Z,89.38
2023-01-13T06:38:03.842Z,89.61
2023-01-13T06:40:31.819Z,89.74
2023-01-13T06:43:17.846Z,89.73
2023-01-13T06:45:51.058Z,89.76
2023-01-13T06:48:20.357Z,89.69
2023-01-13T06:50:48.331Z,89.61
2023-01-13T06:53:16.294Z,89.40
2023-01-13T06:55:44.121Z,89.41
2023-01-13T06:58:12.157Z,89.13
2023-01-13T07:00:40.096Z,89.09
2023-01-13T07:03:09.000Z,89.41
2023-01-13T07:05:37.268Z,89.51
2023-01-13T07:08:05.844Z,89.42
2023-01-13T07:10:34.241Z,89.16
2023-01-13T07:13:21.881Z,89.23
2023-01-13T07:15:54.240Z,88.82
2023-01-13T07:18:22.213Z,88.63
2023-01-13T07:20:57.245Z,88.63
2023-01-13T07:23:25.524Z,88.61
2023-01-13T07:25:54.932Z,88.84
2023-01-13T07:28:23.096Z,88.76
2023-01-13T07:30:51.175Z,88.13
2023-01-13T07:33:19.238Z,87.88
2023-01-13T07:35:47.552Z,87.76
2023-01-13T07:38:15.863Z,87.50
2023-01-13T07:40:43.862Z,87.81
2023-01-13T07:43:33.179Z,88.50
2023-01-13T07:46:03.300Z,87.95
2023-01-13T07:48:35.415Z,86.93
2023-01-13T07:51:04.544Z,86.55
2023-01-13T07:53:32.994Z,86.53
2023-01-13T07:56:01.593Z,86.62
2023-01-13T07:58:29.861Z,86.52
2023-01-13T08:00:58.372Z,86.51
2023-01-13T08:03:27.435Z,86.44
2023-01-13T08:05:55.416Z,85.83
2023-01-13T08:08:23.381Z,86.05
2023-01-13T08:10:51.243Z,86.18
2023-01-13T08:13:22.588Z,86.24
2023-01-13T08:15:51.684Z,86.10
2023-01-13T08:18:22.252Z,85.96
2023-01-13T08:20:52.484Z,85.52
2023-01-13T08:23:21.231Z,85.33
2023-01-13T08:25:49.733Z,85.32
2023-01-13T08:28:17.679Z,85.42
2023-01-13T08:30:45.734Z,85.69
2023-01-13T08:33:13.733Z,85.86
2023-01-13T08:35:42.435Z,86.21
2023-01-13T08:38:10.477Z,86.30
2023-01-13T08:40:39.889Z,86.08
2023-01-13T08:43:07.849Z,86.00
2023-01-13T08:45:36.348Z,85.61
2023-01-13T08:48:04.912Z,85.61
2023-01-13T08:50:32.990Z,85.58
2023-01-13T08:53:01.060Z,85.26
2023-01-13T08:55:28.893Z,85.42
2023-01-13T08:58:14.014Z,84.98
2023-01-13T09:00:43.700Z,84.82
2023-01-13T09:03:11.674Z,84.97
2023-01-13T09:05:39.550Z,84.93
2023-01-13T09:08:07.630Z,84.32
2023-01-13T09:10:35.991Z,84.07
2023-01-13T09:13:12.988Z,84.24
2023-01-13T09:15:42.737Z,84.48
2023-01-13T09:18:10.986Z,84.29
2023-01-13T09:20:41.594Z,84.59
2023-01-13T09:23:10.980Z,83.99
2023-01-13T09:25:39.704Z,83.72
2023-01-13T09:28:08.794Z,83.87
2023-01-13T09:30:37.727Z,83.90
2023-01-13T09:33:24.523Z,83.40
2023-01-13T09:35:52.451Z,82.85
2023-01-13T09:38:20.330Z,82.74
2023-01-13T09:40:49.111Z,82.53
2023-01-13T09:43:42.568Z,82.47
2023-01-13T09:46:47.530Z,82.25
2023-01-13T09:49:24.183Z,81.93
2023-01-13T09:51:55.000Z,81.99
2023-01-13T09:54:32.201Z,82.63
2023-01-13T09:57:00.292Z,82.87
2023-01-13T09:59:34.804Z,82.87
2023-01-13T10:02:12.088Z,82.85
2023-01-13T10:04:40.048Z,82.65
2023-01-13T10:07:13.862Z,82.25
2023-01-13T10:09:46.643Z,81.92
2023-01-13T10:12:35.681Z,82.03
2023-01-13T10:15:03.637Z,81.71
2023-01-13T10:17:31.561Z,81.38
2023-01-13T10:20:18.270Z,81.69
2023-01-13T10:23:04.459Z,80.90
2023-01-13T10:25:48.455Z,81.12
2023-01-13T10:28:19.653Z,80.90
2023-01-13T10:30:47.920Z,81.34
2023-01-13T10:33:20.857Z,82.03
2023-01-13T10:35:53.594Z,81.80
2023-01-13T10:38:41.740Z,81.20
2023-01-13T10:41:15.537Z,81.16
2023-01-13T10:43:57.439Z,81.24
2023-01-13T10:46:25.312Z,80.42
2023-01-13T10:48:58.181Z,80.06
2023-01-13T10:51:27.907Z,80.01
2023-01-13T10:54:03.345Z,79.68
2023-01-13T10:56:32.983Z,79.50
2023-01-13T10:59:09.930Z,79.49
2023-01-13T11:01:38.127Z,79.68
2023-01-13T11:04:24.725Z,79.68
2023-01-13T11:06:52.784Z,79.21
2023-01-13T11:09:22.587Z,78.88
2023-01-13T11:11:55.502Z,78.70
2023-01-13T11:14:39.687Z,78.52
2023-01-13T11:17:17.028Z,77.93
2023-01-13T11:19:49.799Z,77.54
2023-01-13T11:22:21.722Z,78.12
2023-01-13T11:25:01.623Z,78.52
2023-01-13T11:27:29.486Z,78.67
2023-01-13T11:30:09.885Z,78.87
2023-01-13T11:32:48.663Z,78.41
2023-01-13T11:35:18.984Z,78.18
2023-01-13T11:37:52.205Z,78.07
2023-01-13T11:40:27.637Z,78.41
2023-01-13T11:43:07.373Z,78.76
2023-01-13T11:45:53.565Z,78.61
2023-01-13T11:48:27.028Z,78.37
2023-01-13T11:51:00.336Z,78.20
2023-01-13T11:53:43.700Z,77.91
2023-01-13T11:56:11.669Z,78.10
2023-01-13T11:58:58.055Z,78.49
2023-01-13T12:01:28.933Z,77.79
2023-01-13T12:04:15.466Z,77.81
2023-01-13T12:06:46.126Z,77.90
2023-01-13T12:09:21.310Z,78.39
2023-01-13T12:12:19.617Z,78.00
2023-01-13T12:14:56.633Z,77.00
2023-01-13T12:17:39.754Z,75.74
2023-01-13T12:20:16.640Z,75.67
2023-01-13T12:22:46.955Z,77.81
2023-01-13T12:25:20.570Z,78.36
2023-01-13T12:27:51.804Z,77.71
2023-01-13T12:30:23.056Z,77.00
2023-01-13T12:32:53.696Z,77.33
2023-01-13T12:35:47.764Z,77.47
2023-01-13T12:38:15.738Z,77.27
2023-01-13T12:41:00.154Z,77.17
2023-01-13T12:43:47.214Z,77.13
2023-01-13T12:46:24.708Z,77.21
2023-01-13T12:48:57.098Z,76.68
2023-01-13T12:51:57.002Z,75.87
2023-01-13T12:54:31.170Z,75.17
2023-01-13T12:56:59.491Z,75.03
2023-01-13T12:59:27.357Z,74.80
2023-01-13T13:02:10.856Z,73.41
2023-01-13T13:04:43.360Z,72.78
2023-01-13T13:07:15.633Z,72.30
2023-01-13T13:09:45.247Z,70.52
2023-01-13T13:12:50.376Z,67.79
2023-01-13T13:15:23.273Z,68.35
2023-01-13T13:18:14.683Z,67.84
2023-01-13T13:20:56.993Z,65.27
2023-01-13T13:23:29.280Z,65.18
2023-01-13T13:26:07.475Z,65.44
2023-01-13T13:28:41.578Z,65.07
2023-01-13T13:31:24.074Z,64.54
2023-01-13T13:34:06.715Z,61.57
2023-01-13T13:36:49.880Z,58.24
2023-01-13T13:39:40.241Z,55.43
2023-01-13T13:42:41.379Z,53.47
2023-01-13T13:45:35.150Z,51.49
2023-01-13T13:48:19.120Z,51.13
2023-01-13T13:50:47.893Z,51.86
2023-01-13T13:53:16.439Z,53.08
2023-01-13T13:55:53.516Z,53.60
2023-01-13T13:58:22.957Z,54.57
2023-01-13T14:00:51.439Z,56.02
2023-01-13T14:03:19.728Z,57.45
2023-01-13T14:05:58.640Z,59.74
2023-01-13T14:08:31.390Z,60.82
2023-01-13T14:10:59.278Z,62.63
2023-01-13T14:13:31.522Z,63.86
2023-01-13T14:16:04.092Z,64.71
2023-01-13T14:18:34.532Z,65.79
2023-01-13T14:21:17.860Z,67.07
2023-01-13T14:23:54.003Z,67.80
2023-01-13T14:26:26.379Z,68.27
2023-01-13T14:28:55.464Z,69.39
2023-01-13T14:31:23.856Z,69.84
2023-01-13T14:33:54.264Z,70.23
2023-01-13T14:36:22.228Z,70.80
2023-01-13T14:39:14.978Z,71.18
2023-01-13T14:41:42.851Z,71.62
2023-01-13T14:44:49.420Z,72.42
2023-01-13T14:47:17.302Z,72.83
2023-01-13T14:49:59.285Z,73.04
2023-01-13T14:52:28.684Z,73.66
2023-01-13T14:55:05.712Z,73.82
2023-01-13T14:57:34.677Z,74.89
2023-01-13T15:00:06.658Z,75.55
2023-01-13T15:02:39.254Z,75.86
2023-01-13T15:05:19.686Z,76.37
2023-01-13T15:07:50.698Z,77.03
2023-01-13T15:10:19.797Z,77.13
2023-01-13T15:12:50.233Z,76.36
2023-01-13T15:15:30.387Z,76.49
2023-01-13T15:17:59.062Z,76.87
2023-01-13T15:20:27.975Z,76.33
2023-01-13T15:22:58.153Z,76.32
2023-01-13T15:25:31.452Z,77.55
2023-01-13T15:27:59.318Z,78.53
2023-01-13T15:30:27.880Z,78.77
2023-01-13T15:32:56.503Z,78.57
2023-01-13T15:35:25.687Z,78.88
2023-01-13T15:37:55.106Z,78.90
2023-01-13T15:40:24.997Z,79.44
2023-01-13T15:43:11.322Z,80.23
2023-01-13T15:45:57.935Z,80.57
2023-01-13T15:48:27.962Z,80.47
2023-01-13T15:50:55.920Z,80.40
2023-01-13T15:53:23.777Z,80.22
2023-01-13T15:55:55.124Z,80.04
2023-01-13T15:58:27.080Z,80.33
2023-01-13T16:00:56.279Z,80.81
2023-01-13T16:03:24.563Z,80.81
2023-01-13T16:05:52.649Z,80.78
2023-01-13T16:08:21.631Z,81.06
2023-01-13T16:10:50.114Z,81.34
2023-01-13T16:13:18.619Z,81.67
2023-01-13T16:15:48.213Z,81.96
2023-01-13T16:18:18.111Z,82.39
2023-01-13T16:20:46.815Z,82.76
2023-01-13T16:23:14.795Z,83.56
2023-01-13T16:25:45.120Z,83.61
2023-01-13T16:28:20.445Z,83.43
2023-01-13T16:30:48.441Z,83.18
2023-01-13T16:33:16.525Z,82.92
2023-01-13T16:36:10.748Z,83.28
2023-01-13T16:38:32.114Z,83.03
2023-01-13T16:41:00.000Z,82.46
2023-01-13T16:43:27.923Z,81.56
2023-01-13T16:45:55.993Z,81.57
2023-01-13T16:48:24.123Z,81.18
2023-01-13T16:50:52.098Z,80.82
2023-01-13T16:53:19.970Z,80.71
2023-01-13T16:55:47.936Z,81.03
2023-01-13T16:58:17.646Z,81.47
2023-01-13T17:00:48.927Z,81.59
2023-01-13T17:03:17.321Z,81.31
2023-01-13T17:05:47.620Z,81.22
2023-01-13T17:08:17.947Z,80.93
2023-01-13T17:10:46.750Z,81.25
2023-01-13T17:13:16.995Z,81.08
2023-01-13T17:15:46.063Z,80.95
2023-01-13T17:18:14.214Z,81.04
2023-01-13T17:20:42.182Z,80.68
2023-01-13T17:23:10.157Z,80.54
2023-01-13T17:25:38.123Z,80.56
2023-01-13T17:28:06.090Z,80.48
2023-01-13T17:30:34.082Z,80.25
2023-01-13T17:33:01.921Z,80.02
2023-01-13T17:35:30.415Z,79.78
2023-01-13T17:37:58.378Z,79.76
2023-01-13T17:40:26.349Z,79.51
2023-01-13T17:42:54.237Z,79.50
2023-01-13T17:45:22.208Z,79.70
2023-01-13T17:47:50.150Z,79.94
2023-01-13T17:50:17.990Z,80.01
2023-01-13T17:52:45.890Z,79.68
2023-01-13T17:55:13.747Z,80.03
2023-01-13T17:57:41.558Z,80.35
2023-01-13T18:00:12.150Z,80.47
2023-01-13T18:02:43.058Z,80.71
2023-01-13T18:05:13.381Z,81.03
2023-01-13T18:07:41.280Z,81.37
2023-01-13T18:10:09.653Z,81.79
2023-01-13T18:12:37.624Z,82.09
2023-01-13T18:15:05.897Z,82.08
2023-01-13T18:17:33.772Z,82.37
2023-01-13T18:20:20.402Z,83.05
2023-01-13T18:23:07.192Z,83.22
2023-01-13T18:25:53.796Z,83.18
2023-01-13T18:28:21.662Z,83.35
2023-01-13T18:30:49.674Z,83.56
2023-01-13T18:33:17.702Z,83.59
2023-01-13T18:35:45.669Z,83.87
2023-01-13T18:38:23.478Z,83.50
2023-01-13T18:40:51.536Z,83.63
2023-01-13T18:43:19.504Z,83.86
2023-01-13T18:45:50.066Z,84.12
2023-01-13T18:48:18.019Z,84.66
2023-01-13T18:50:45.985Z,84.85
2023-01-13T18:53:14.156Z,85.11
2023-01-13T18:55:43.558Z,85.02
2023-01-13T18:58:11.725Z,84.68
2023-01-13T19:00:39.697Z,84.53
2023-01-13T19:05:38.098Z,84.50
2023-01-13T19:08:06.486Z,84.26
2023-01-13T19:10:34.625Z,84.08
2023-01-13T19:13:02.767Z,84.30
2023-01-13T19:15:31.093Z,84.46
2023-01-13T19:17:59.175Z,84.37
2023-01-13T19:20:27.207Z,84.51
2023-01-13T19:22:55.449Z,84.81
2023-01-13T19:25:23.392Z,84.95
2023-01-13T19:27:51.313Z,85.15
2023-01-13T19:30:19.407Z,85.30
2023-01-13T19:32:47.214Z,85.44
2023-01-13T19:35:17.943Z,85.40
2023-01-13T19:37:45.945Z,85.39
2023-01-13T19:40:13.935Z,85.02
2023-01-13T19:43:03.553Z,85.10
2023-01-13T19:45:33.957Z,85.04
2023-01-13T19:48:02.657Z,85.93
2023-01-13T19:50:30.638Z,86.52
2023-01-13T19:52:58.660Z,87.00
2023-01-13T19:55:26.794Z,87.45
2023-01-13T19:57:54.843Z,87.22
2023-01-13T20:00:23.894Z,87.41
2023-01-13T20:02:52.058Z,87.70
2023-01-13T20:05:22.620Z,87.66
2023-01-13T20:07:51.638Z,87.83
2023-01-13T20:10:20.659Z,87.35
2023-01-13T20:12:48.601Z,86.68
2023-01-13T20:15:16.510Z,86.08
2023-01-13T20:17:45.053Z,85.06
2023-01-13T20:20:13.737Z,84.72
2023-01-13T20:22:41.859Z,85.14
2023-01-13T20:25:10.608Z,85.49
2023-01-13T20:27:38.529Z,85.03
2023-01-13T20:30:09.764Z,85.18
2023-01-13T20:32:37.886Z,85.06
2023-01-13T20:35:07.510Z,84.82
2023-01-13T20:37:37.617Z,84.29
2023-01-13T20:40:06.202Z,83.71
2023-01-13T20:42:44.665Z,83.34
2023-01-13T20:45:17.411Z,83.39
2023-01-13T20:47:46.012Z,82.67
2023-01-13T20:50:14.552Z,82.65
2023-01-13T20:52:42.634Z,82.34
2023-01-13T20:55:10.799Z,82.57
2023-01-13T20:57:38.795Z,82.60
2023-01-13T21:00:07.204Z,83.01
2023-01-13T21:02:35.128Z,82.95
2023-01-13T21:05:03.305Z,82.59
2023-01-13T21:07:31.186Z,82.99
2023-01-13T21:09:59.035Z,83.63
2023-01-13T21:12:45.350Z,83.78
2023-01-13T21:15:20.880Z,83.62
2023-01-13T21:18:08.639Z,82.68
2023-01-13T21:20:37.213Z,82.55
2023-01-13T21:23:05.173Z,82.65
2023-01-13T21:25:35.390Z,82.30
2023-01-13T21:28:07.850Z,82.15
2023-01-13T21:30:37.672Z,82.33
2023-01-13T21:33:06.481Z,82.93
2023-01-13T21:35:37.422Z,83.47
2023-01-13T21:38:05.477Z,82.95
2023-01-13T21:40:33.342Z,83.28
2023-01-13T21:43:19.852Z,83.67
2023-01-13T21:46:06.702Z,83.94
2023-01-13T21:48:34.634Z,84.60
2023-01-13T21:51:02.604Z,84.57
2023-01-13T21:53:30.572Z,84.02
2023-01-13T21:55:58.435Z,83.58
2023-01-13T21:58:26.404Z,83.46
2023-01-13T22:00:54.453Z,83.59
2023-01-13T22:03:22.468Z,83.59
2023-01-13T22:05:54.696Z,83.96
2023-01-13T22:08:22.803Z,84.21
2023-01-13T22:11:00.561Z,84.41
2023-01-13T22:13:48.052Z,84.44
2023-01-13T22:16:16.342Z,84.73
2023-01-13T22:18:44.439Z,84.74
2023-01-13T22:21:12.454Z,84.85
2023-01-13T22:23:40.411Z,84.75
2023-01-13T22:26:08.482Z,84.74
2023-01-13T22:28:44.331Z,84.79
2023-01-13T22:31:13.340Z,84.66
2023-01-13T22:33:41.677Z,84.86
2023-01-13T22:36:10.298Z,84.96
2023-01-13T22:38:38.274Z,84.79
2023-01-13T22:41:07.596Z,84.84
2023-01-13T22:43:36.137Z,85.13
2023-01-13T22:46:07.074Z,85.38
2023-01-13T22:48:35.461Z,85.87
2023-01-13T22:51:14.286Z,85.42
2023-01-13T22:53:42.842Z,84.90
2023-01-13T22:56:16.059Z,85.26
2023-01-13T22:58:44.333Z,85.44
2023-01-13T23:01:13.805Z,85.50
2023-01-13T23:03:42.562Z,85.47
2023-01-13T23:06:10.503Z,86.06
2023-01-13T23:08:38.575Z,86.01
2023-01-13T23:11:07.862Z,85.55
2023-01-13T23:13:37.985Z,85.75
2023-01-13T23:16:07.500Z,85.83
2023-01-13T23:18:35.471Z,86.04
2023-01-13T23:21:04.358Z,86.13
2023-01-13T23:23:33.143Z,86.24
2023-01-13T23:26:01.143Z,86.07
2023-01-13T23:28:29.594Z,85.73
2023-01-13T23:30:57.545Z,85.63
2023-01-13T23:33:26.057Z,85.23
2023-01-13T23:35:57.190Z,84.78
2023-01-13T23:38:25.163Z,84.77
2023-01-13T23:40:53.234Z,85.57
2023-01-13T23:43:22.032Z,85.16
2023-01-13T23:45:50.023Z,84.32
2023-01-13T23:48:18.881Z,84.17
2023-01-13T23:50:56.376Z,83.93
2023-01-13T23:53:24.553Z,83.44
2023-01-13T23:55:56.619Z,83.90
2023-01-13T23:58:24.584Z,83.86
